sensor_id;sensor_type;location;lat;lon;timestamp;P1;durP1;ratioP1;P2;durP2;ratioP2
11598;SDS011;5855;48.840;9.188;2023-02-24T00:01:33;24.10;;;18.70;;
11598;SDS011;5855;48.840;9.188;2023-02-24T00:04:04;25.92;;;19.50;;
11598;SDS011;5855;48.840;9.188;2023-02-24T00:06:34;25.90;;;19.10;;
11598;SDS011;5855;48.840;9.188;2023-02-24T00:09:04;27.73;;;19.58;;
11598;SDS011;5855;48.840;9.188;2023-02-24T00:11:34;24.73;;;19.55;;
11598;SDS011;5855;48.840;9.188;2023-02-24T00:14:03;30.13;;;20.52;;
11598;SDS011;5855;48.840;9.188;2023-02-24T00:16:31;23.40;;;19.65;;
11598;SDS011;5855;48.840;9.188;2023-02-24T00:19:00;28.02;;;20.48;;
11598;SDS011;5855;48.840;9.188;2023-02-24T00:21:27;28.67;;;20.88;;
11598;SDS011;5855;48.840;9.188;2023-02-24T00:23:55;25.88;;;21.23;;
11598;SDS011;5855;48.840;9.188;2023-02-24T00:26:24;27.35;;;21.40;;
11598;SDS011;5855;48.840;9.188;2023-02-24T00:28:53;28.20;;;20.98;;
11598;SDS011;5855;48.840;9.188;2023-02-24T00:31:20;27.13;;;20.80;;
11598;SDS011;5855;48.840;9.188;2023-02-24T00:33:48;25.02;;;19.83;;
11598;SDS011;5855;48.840;9.188;2023-02-24T00:36:17;27.48;;;20.58;;
11598;SDS011;5855;48.840;9.188;2023-02-24T00:38:48;26.95;;;20.45;;
11598;SDS011;5855;48.840;9.188;2023-02-24T00:41:16;24.10;;;18.83;;
11598;SDS011;5855;48.840;9.188;2023-02-24T00:43:46;23.92;;;19.50;;
11598;SDS011;5855;48.840;9.188;2023-02-24T00:46:14;25.48;;;19.85;;
11598;SDS011;5855;48.840;9.188;2023-02-24T00:48:42;28.02;;;20.58;;
11598;SDS011;5855;48.840;9.188;2023-02-24T00:51:11;26.02;;;20.38;;
11598;SDS011;5855;48.840;9.188;2023-02-24T00:53:42;27.23;;;19.60;;
11598;SDS011;5855;48.840;9.188;2023-02-24T00:56:10;27.02;;;20.65;;
11598;SDS011;5855;48.840;9.188;2023-02-24T00:58:37;24.13;;;19.85;;
11598;SDS011;5855;48.840;9.188;2023-02-24T01:01:04;26.73;;;20.38;;
11598;SDS011;5855;48.840;9.188;2023-02-24T01:03:37;24.30;;;19.25;;
11598;SDS011;5855;48.840;9.188;2023-02-24T01:06:04;26.02;;;19.92;;
11598;SDS011;5855;48.840;9.188;2023-02-24T01:08:31;25.77;;;20.45;;
11598;SDS011;5855;48.840;9.188;2023-02-24T01:11:02;26.95;;;20.70;;
11598;SDS011;5855;48.840;9.188;2023-02-24T01:13:47;24.00;;;19.05;;
11598;SDS011;5855;48.840;9.188;2023-02-24T01:16:14;24.27;;;18.98;;
11598;SDS011;5855;48.840;9.188;2023-02-24T01:18:43;25.73;;;19.10;;
11598;SDS011;5855;48.840;9.188;2023-02-24T01:21:12;22.02;;;17.88;;
11598;SDS011;5855;48.840;9.188;2023-02-24T01:23:39;23.45;;;18.20;;
11598;SDS011;5855;48.840;9.188;2023-02-24T01:26:08;22.52;;;17.70;;
11598;SDS011;5855;48.840;9.188;2023-02-24T01:28:35;24.58;;;18.30;;
11598;SDS011;5855;48.840;9.188;2023-02-24T01:31:03;21.55;;;18.10;;
11598;SDS011;5855;48.840;9.188;2023-02-24T01:33:31;23.58;;;18.52;;
11598;SDS011;5855;48.840;9.188;2023-02-24T01:36:10;25.40;;;19.25;;
11598;SDS011;5855;48.840;9.188;2023-02-24T01:38:38;24.75;;;19.08;;
11598;SDS011;5855;48.840;9.188;2023-02-24T01:41:08;23.92;;;19.02;;
11598;SDS011;5855;48.840;9.188;2023-02-24T01:43:59;25.30;;;18.92;;
11598;SDS011;5855;48.840;9.188;2023-02-24T01:46:30;23.08;;;18.48;;
11598;SDS011;5855;48.840;9.188;2023-02-24T01:48:59;23.67;;;19.00;;
11598;SDS011;5855;48.840;9.188;2023-02-24T01:51:30;28.45;;;19.17;;
11598;SDS011;5855;48.840;9.188;2023-02-24T01:54:00;22.50;;;18.98;;
11598;SDS011;5855;48.840;9.188;2023-02-24T01:56:31;24.35;;;19.58;;
11598;SDS011;5855;48.840;9.188;2023-02-24T01:58:58;22.30;;;19.40;;
11598;SDS011;5855;48.840;9.188;2023-02-24T02:01:28;23.08;;;19.38;;
11598;SDS011;5855;48.840;9.188;2023-02-24T02:04:04;22.52;;;19.33;;
11598;SDS011;5855;48.840;9.188;2023-02-24T02:06:36;24.17;;;19.40;;
11598;SDS011;5855;48.840;9.188;2023-02-24T02:09:04;25.23;;;19.75;;
11598;SDS011;5855;48.840;9.188;2023-02-24T02:11:33;23.83;;;18.20;;
11598;SDS011;5855;48.840;9.188;2023-02-24T02:14:00;26.13;;;20.00;;
11598;SDS011;5855;48.840;9.188;2023-02-24T02:16:34;25.83;;;20.08;;
11598;SDS011;5855;48.840;9.188;2023-02-24T02:19:21;22.58;;;19.13;;
11598;SDS011;5855;48.840;9.188;2023-02-24T02:22:06;25.00;;;20.63;;
11598;SDS011;5855;48.840;9.188;2023-02-24T02:24:51;25.10;;;19.98;;
11598;SDS011;5855;48.840;9.188;2023-02-24T02:27:29;24.90;;;20.20;;
11598;SDS011;5855;48.840;9.188;2023-02-24T02:33:15;25.80;;;21.30;;
11598;SDS011;5855;48.840;9.188;2023-02-24T02:36:03;24.92;;;21.85;;
11598;SDS011;5855;48.840;9.188;2023-02-24T02:38:37;25.58;;;20.70;;
11598;SDS011;5855;48.840;9.188;2023-02-24T02:41:11;25.75;;;21.35;;
11598;SDS011;5855;48.840;9.188;2023-02-24T02:43:47;25.65;;;21.13;;
11598;SDS011;5855;48.840;9.188;2023-02-24T02:46:20;26.95;;;21.08;;
11598;SDS011;5855;48.840;9.188;2023-02-24T02:48:59;27.23;;;21.70;;
11598;SDS011;5855;48.840;9.188;2023-02-24T02:51:33;26.75;;;21.90;;
11598;SDS011;5855;48.840;9.188;2023-02-24T02:54:05;25.10;;;21.40;;
11598;SDS011;5855;48.840;9.188;2023-02-24T02:56:41;29.48;;;21.90;;
11598;SDS011;5855;48.840;9.188;2023-02-24T02:59:12;28.30;;;21.13;;
11598;SDS011;5855;48.840;9.188;2023-02-24T03:01:46;28.35;;;21.17;;
11598;SDS011;5855;48.840;9.188;2023-02-24T03:04:15;28.13;;;21.23;;
11598;SDS011;5855;48.840;9.188;2023-02-24T03:06:49;28.67;;;20.67;;
11598;SDS011;5855;48.840;9.188;2023-02-24T03:09:21;26.73;;;21.70;;
11598;SDS011;5855;48.840;9.188;2023-02-24T03:11:54;24.50;;;20.33;;
11598;SDS011;5855;48.840;9.188;2023-02-24T03:14:25;26.00;;;20.25;;
11598;SDS011;5855;48.840;9.188;2023-02-24T03:16:54;26.85;;;20.98;;
11598;SDS011;5855;48.840;9.188;2023-02-24T03:19:25;25.88;;;20.65;;
11598;SDS011;5855;48.840;9.188;2023-02-24T03:21:58;27.63;;;22.27;;
11598;SDS011;5855;48.840;9.188;2023-02-24T03:24:31;25.55;;;21.67;;
11598;SDS011;5855;48.840;9.188;2023-02-24T03:27:02;24.58;;;20.45;;
11598;SDS011;5855;48.840;9.188;2023-02-24T03:29:34;26.63;;;21.40;;
11598;SDS011;5855;48.840;9.188;2023-02-24T03:32:10;26.80;;;22.27;;
11598;SDS011;5855;48.840;9.188;2023-02-24T03:34:45;26.05;;;20.75;;
11598;SDS011;5855;48.840;9.188;2023-02-24T03:37:17;27.05;;;21.17;;
11598;SDS011;5855;48.840;9.188;2023-02-24T03:39:50;28.83;;;21.35;;
11598;SDS011;5855;48.840;9.188;2023-02-24T03:42:17;28.02;;;21.13;;
11598;SDS011;5855;48.840;9.188;2023-02-24T03:44:45;29.60;;;22.50;;
11598;SDS011;5855;48.840;9.188;2023-02-24T03:47:13;29.42;;;21.58;;
11598;SDS011;5855;48.840;9.188;2023-02-24T03:49:41;26.98;;;22.27;;
11598;SDS011;5855;48.840;9.188;2023-02-24T03:52:08;27.80;;;22.02;;
11598;SDS011;5855;48.840;9.188;2023-02-24T03:54:50;26.33;;;22.85;;
11598;SDS011;5855;48.840;9.188;2023-02-24T03:57:33;28.30;;;21.92;;
11598;SDS011;5855;48.840;9.188;2023-02-24T04:00:20;31.25;;;24.20;;
11598;SDS011;5855;48.840;9.188;2023-02-24T04:02:54;29.58;;;23.45;;
11598;SDS011;5855;48.840;9.188;2023-02-24T04:05:27;31.23;;;25.00;;
11598;SDS011;5855;48.840;9.188;2023-02-24T04:07:58;34.75;;;25.17;;
11598;SDS011;5855;48.840;9.188;2023-02-24T04:10:30;34.78;;;25.98;;
11598;SDS011;5855;48.840;9.188;2023-02-24T04:13:03;33.63;;;27.20;;
11598;SDS011;5855;48.840;9.188;2023-02-24T04:15:39;37.13;;;26.77;;
11598;SDS011;5855;48.840;9.188;2023-02-24T04:18:10;38.33;;;28.98;;
11598;SDS011;5855;48.840;9.188;2023-02-24T04:20:40;37.53;;;28.50;;
11598;SDS011;5855;48.840;9.188;2023-02-24T04:23:10;38.78;;;28.20;;
11598;SDS011;5855;48.840;9.188;2023-02-24T04:25:42;40.20;;;28.58;;
11598;SDS011;5855;48.840;9.188;2023-02-24T04:28:12;38.83;;;28.88;;
11598;SDS011;5855;48.840;9.188;2023-02-24T04:30:43;37.75;;;29.17;;
11598;SDS011;5855;48.840;9.188;2023-02-24T04:33:13;40.33;;;29.77;;
11598;SDS011;5855;48.840;9.188;2023-02-24T04:35:40;38.88;;;29.40;;
11598;SDS011;5855;48.840;9.188;2023-02-24T04:38:10;37.63;;;29.30;;
11598;SDS011;5855;48.840;9.188;2023-02-24T04:40:37;40.55;;;29.85;;
11598;SDS011;5855;48.840;9.188;2023-02-24T04:43:07;42.13;;;30.27;;
11598;SDS011;5855;48.840;9.188;2023-02-24T04:45:35;43.25;;;30.23;;
11598;SDS011;5855;48.840;9.188;2023-02-24T04:48:04;40.22;;;29.70;;
11598;SDS011;5855;48.840;9.188;2023-02-24T04:50:36;41.58;;;30.10;;
11598;SDS011;5855;48.840;9.188;2023-02-24T04:53:06;41.63;;;30.15;;
11598;SDS011;5855;48.840;9.188;2023-02-24T04:55:34;42.33;;;30.50;;
11598;SDS011;5855;48.840;9.188;2023-02-24T04:58:04;43.55;;;31.73;;
11598;SDS011;5855;48.840;9.188;2023-02-24T05:00:32;46.28;;;31.85;;
11598;SDS011;5855;48.840;9.188;2023-02-24T05:03:00;41.40;;;32.28;;
11598;SDS011;5855;48.840;9.188;2023-02-24T05:05:28;41.88;;;30.50;;
11598;SDS011;5855;48.840;9.188;2023-02-24T05:07:58;45.17;;;33.13;;
11598;SDS011;5855;48.840;9.188;2023-02-24T05:10:28;47.25;;;32.63;;
11598;SDS011;5855;48.840;9.188;2023-02-24T05:12:57;44.95;;;32.17;;
11598;SDS011;5855;48.840;9.188;2023-02-24T05:15:24;44.08;;;31.88;;
11598;SDS011;5855;48.840;9.188;2023-02-24T05:17:56;45.00;;;32.47;;
11598;SDS011;5855;48.840;9.188;2023-02-24T05:20:24;42.72;;;31.23;;
11598;SDS011;5855;48.840;9.188;2023-02-24T05:23:09;47.95;;;32.20;;
11598;SDS011;5855;48.840;9.188;2023-02-24T05:25:36;44.40;;;31.75;;
11598;SDS011;5855;48.840;9.188;2023-02-24T05:28:07;44.00;;;31.95;;
11598;SDS011;5855;48.840;9.188;2023-02-24T05:30:34;48.50;;;33.05;;
11598;SDS011;5855;48.840;9.188;2023-02-24T05:33:02;47.10;;;31.88;;
11598;SDS011;5855;48.840;9.188;2023-02-24T05:35:31;42.75;;;31.17;;
11598;SDS011;5855;48.840;9.188;2023-02-24T05:38:01;45.70;;;32.40;;
11598;SDS011;5855;48.840;9.188;2023-02-24T05:40:32;46.03;;;32.60;;
11598;SDS011;5855;48.840;9.188;2023-02-24T05:42:59;47.95;;;33.40;;
11598;SDS011;5855;48.840;9.188;2023-02-24T05:45:28;50.22;;;33.22;;
11598;SDS011;5855;48.840;9.188;2023-02-24T05:47:55;47.33;;;31.35;;
11598;SDS011;5855;48.840;9.188;2023-02-24T05:50:23;44.70;;;31.30;;
11598;SDS011;5855;48.840;9.188;2023-02-24T05:52:50;45.90;;;32.30;;
11598;SDS011;5855;48.840;9.188;2023-02-24T05:55:17;48.63;;;32.78;;
11598;SDS011;5855;48.840;9.188;2023-02-24T05:57:46;48.33;;;32.13;;
11598;SDS011;5855;48.840;9.188;2023-02-24T06:00:15;50.22;;;33.80;;
11598;SDS011;5855;48.840;9.188;2023-02-24T06:02:42;52.53;;;34.05;;
11598;SDS011;5855;48.840;9.188;2023-02-24T06:05:14;53.47;;;35.08;;
11598;SDS011;5855;48.840;9.188;2023-02-24T06:07:55;53.22;;;35.80;;
11598;SDS011;5855;48.840;9.188;2023-02-24T06:10:29;55.72;;;35.75;;
11598;SDS011;5855;48.840;9.188;2023-02-24T06:12:58;49.70;;;35.08;;
11598;SDS011;5855;48.840;9.188;2023-02-24T06:15:25;55.63;;;35.78;;
11598;SDS011;5855;48.840;9.188;2023-02-24T06:17:53;56.10;;;36.20;;
11598;SDS011;5855;48.840;9.188;2023-02-24T06:20:20;53.00;;;35.58;;
11598;SDS011;5855;48.840;9.188;2023-02-24T06:22:48;52.88;;;34.35;;
11598;SDS011;5855;48.840;9.188;2023-02-24T06:25:19;56.78;;;36.85;;
11598;SDS011;5855;48.840;9.188;2023-02-24T06:27:49;54.42;;;35.35;;
11598;SDS011;5855;48.840;9.188;2023-02-24T06:30:18;55.55;;;36.50;;
11598;SDS011;5855;48.840;9.188;2023-02-24T06:32:47;63.97;;;39.03;;
11598;SDS011;5855;48.840;9.188;2023-02-24T06:35:15;59.55;;;37.40;;
11598;SDS011;5855;48.840;9.188;2023-02-24T06:37:45;62.20;;;38.05;;
11598;SDS011;5855;48.840;9.188;2023-02-24T06:40:13;59.63;;;37.85;;
11598;SDS011;5855;48.840;9.188;2023-02-24T06:42:46;60.30;;;37.47;;
11598;SDS011;5855;48.840;9.188;2023-02-24T06:45:14;65.55;;;39.30;;
11598;SDS011;5855;48.840;9.188;2023-02-24T06:47:42;60.38;;;37.20;;
11598;SDS011;5855;48.840;9.188;2023-02-24T06:50:13;55.33;;;36.15;;
11598;SDS011;5855;48.840;9.188;2023-02-24T06:52:43;56.50;;;36.55;;
11598;SDS011;5855;48.840;9.188;2023-02-24T06:55:10;58.08;;;37.00;;
11598;SDS011;5855;48.840;9.188;2023-02-24T06:57:51;58.88;;;36.42;;
11598;SDS011;5855;48.840;9.188;2023-02-24T07:00:22;58.03;;;36.05;;
11598;SDS011;5855;48.840;9.188;2023-02-24T07:02:52;59.72;;;36.33;;
11598;SDS011;5855;48.840;9.188;2023-02-24T07:05:20;59.50;;;35.25;;
11598;SDS011;5855;48.840;9.188;2023-02-24T07:07:48;60.65;;;36.17;;
11598;SDS011;5855;48.840;9.188;2023-02-24T07:10:15;58.40;;;36.30;;
11598;SDS011;5855;48.840;9.188;2023-02-24T07:12:42;53.92;;;34.13;;
11598;SDS011;5855;48.840;9.188;2023-02-24T07:15:10;53.47;;;34.35;;
11598;SDS011;5855;48.840;9.188;2023-02-24T07:17:38;52.78;;;32.40;;
11598;SDS011;5855;48.840;9.188;2023-02-24T07:20:05;50.08;;;32.78;;
11598;SDS011;5855;48.840;9.188;2023-02-24T07:22:36;52.13;;;33.47;;
11598;SDS011;5855;48.840;9.188;2023-02-24T07:25:03;52.70;;;34.35;;
11598;SDS011;5855;48.840;9.188;2023-02-24T07:27:31;52.65;;;33.35;;
11598;SDS011;5855;48.840;9.188;2023-02-24T07:29:58;53.58;;;34.15;;
11598;SDS011;5855;48.840;9.188;2023-02-24T07:32:31;49.67;;;32.65;;
11598;SDS011;5855;48.840;9.188;2023-02-24T07:34:58;51.30;;;32.38;;
11598;SDS011;5855;48.840;9.188;2023-02-24T07:37:25;51.15;;;32.10;;
11598;SDS011;5855;48.840;9.188;2023-02-24T07:39:55;51.10;;;32.47;;
11598;SDS011;5855;48.840;9.188;2023-02-24T07:42:22;57.75;;;33.28;;
11598;SDS011;5855;48.840;9.188;2023-02-24T07:44:49;50.42;;;32.67;;
11598;SDS011;5855;48.840;9.188;2023-02-24T07:47:19;53.20;;;31.52;;
11598;SDS011;5855;48.840;9.188;2023-02-24T07:49:48;54.60;;;33.15;;
11598;SDS011;5855;48.840;9.188;2023-02-24T07:52:15;52.25;;;32.60;;
11598;SDS011;5855;48.840;9.188;2023-02-24T07:54:42;54.10;;;33.65;;
11598;SDS011;5855;48.840;9.188;2023-02-24T07:57:09;54.30;;;32.75;;
11598;SDS011;5855;48.840;9.188;2023-02-24T07:59:37;52.13;;;31.90;;
11598;SDS011;5855;48.840;9.188;2023-02-24T08:02:04;53.65;;;31.77;;
11598;SDS011;5855;48.840;9.188;2023-02-24T08:04:31;54.20;;;32.92;;
11598;SDS011;5855;48.840;9.188;2023-02-24T08:07:01;54.08;;;30.92;;
11598;SDS011;5855;48.840;9.188;2023-02-24T08:09:29;48.92;;;30.27;;
11598;SDS011;5855;48.840;9.188;2023-02-24T08:12:32;50.80;;;30.77;;
11598;SDS011;5855;48.840;9.188;2023-02-24T08:15:00;54.08;;;31.73;;
11598;SDS011;5855;48.840;9.188;2023-02-24T08:17:33;50.72;;;30.95;;
11598;SDS011;5855;48.840;9.188;2023-02-24T08:20:00;51.63;;;30.58;;
11598;SDS011;5855;48.840;9.188;2023-02-24T08:22:42;47.85;;;30.92;;
11598;SDS011;5855;48.840;9.188;2023-02-24T08:25:11;48.47;;;31.33;;
11598;SDS011;5855;48.840;9.188;2023-02-24T08:27:42;44.63;;;29.90;;
11598;SDS011;5855;48.840;9.188;2023-02-24T08:30:11;46.45;;;30.58;;
11598;SDS011;5855;48.840;9.188;2023-02-24T08:32:48;44.92;;;30.42;;
11598;SDS011;5855;48.840;9.188;2023-02-24T08:35:21;44.95;;;29.60;;
11598;SDS011;5855;48.840;9.188;2023-02-24T08:37:51;43.97;;;29.33;;
11598;SDS011;5855;48.840;9.188;2023-02-24T08:40:20;45.88;;;31.13;;
11598;SDS011;5855;48.840;9.188;2023-02-24T08:43:04;44.28;;;31.27;;
11598;SDS011;5855;48.840;9.188;2023-02-24T08:45:50;43.63;;;30.45;;
11598;SDS011;5855;48.840;9.188;2023-02-24T08:48:21;42.90;;;29.63;;
11598;SDS011;5855;48.840;9.188;2023-02-24T08:50:57;41.42;;;29.55;;
11598;SDS011;5855;48.840;9.188;2023-02-24T08:53:27;44.78;;;30.02;;
11598;SDS011;5855;48.840;9.188;2023-02-24T08:55:56;44.50;;;29.58;;
11598;SDS011;5855;48.840;9.188;2023-02-24T08:58:24;46.35;;;30.10;;
11598;SDS011;5855;48.840;9.188;2023-02-24T09:00:52;41.92;;;29.63;;
11598;SDS011;5855;48.840;9.188;2023-02-24T09:03:21;41.65;;;29.13;;
11598;SDS011;5855;48.840;9.188;2023-02-24T09:05:58;43.75;;;28.80;;
11598;SDS011;5855;48.840;9.188;2023-02-24T09:08:30;40.85;;;27.95;;
11598;SDS011;5855;48.840;9.188;2023-02-24T09:11:04;42.92;;;29.13;;
11598;SDS011;5855;48.840;9.188;2023-02-24T09:13:33;43.95;;;29.13;;
11598;SDS011;5855;48.840;9.188;2023-02-24T09:16:01;46.08;;;29.17;;
11598;SDS011;5855;48.840;9.188;2023-02-24T09:18:29;43.78;;;29.17;;
11598;SDS011;5855;48.840;9.188;2023-02-24T09:21:11;45.90;;;29.50;;
11598;SDS011;5855;48.840;9.188;2023-02-24T09:24:03;47.05;;;29.08;;
11598;SDS011;5855;48.840;9.188;2023-02-24T09:26:31;44.53;;;28.55;;
11598;SDS011;5855;48.840;9.188;2023-02-24T09:29:07;42.53;;;28.60;;
11598;SDS011;5855;48.840;9.188;2023-02-24T09:31:55;40.33;;;26.20;;
11598;SDS011;5855;48.840;9.188;2023-02-24T09:34:28;42.97;;;25.67;;
11598;SDS011;5855;48.840;9.188;2023-02-24T09:36:55;39.35;;;26.23;;
11598;SDS011;5855;48.840;9.188;2023-02-24T09:39:28;38.42;;;25.00;;
11598;SDS011;5855;48.840;9.188;2023-02-24T09:42:16;38.60;;;24.67;;
11598;SDS011;5855;48.840;9.188;2023-02-24T09:44:58;40.35;;;24.73;;
11598;SDS011;5855;48.840;9.188;2023-02-24T09:47:27;38.45;;;24.25;;
11598;SDS011;5855;48.840;9.188;2023-02-24T09:50:05;34.28;;;22.95;;
11598;SDS011;5855;48.840;9.188;2023-02-24T09:52:42;37.00;;;23.15;;
11598;SDS011;5855;48.840;9.188;2023-02-24T09:55:14;33.28;;;22.73;;
11598;SDS011;5855;48.840;9.188;2023-02-24T09:57:54;33.70;;;21.65;;
11598;SDS011;5855;48.840;9.188;2023-02-24T10:00:46;34.30;;;20.55;;
11598;SDS011;5855;48.840;9.188;2023-02-24T10:03:20;28.50;;;17.73;;
11598;SDS011;5855;48.840;9.188;2023-02-24T10:06:10;30.02;;;17.77;;
11598;SDS011;5855;48.840;9.188;2023-02-24T10:08:45;28.55;;;16.42;;
11598;SDS011;5855;48.840;9.188;2023-02-24T10:11:18;25.33;;;15.20;;
11598;SDS011;5855;48.840;9.188;2023-02-24T10:13:57;24.55;;;16.17;;
11598;SDS011;5855;48.840;9.188;2023-02-24T10:16:29;30.65;;;15.95;;
11598;SDS011;5855;48.840;9.188;2023-02-24T10:19:10;24.88;;;16.08;;
11598;SDS011;5855;48.840;9.188;2023-02-24T10:21:44;30.83;;;16.80;;
11598;SDS011;5855;48.840;9.188;2023-02-24T10:24:26;24.30;;;16.23;;
11598;SDS011;5855;48.840;9.188;2023-02-24T10:27:02;28.70;;;19.63;;
11598;SDS011;5855;48.840;9.188;2023-02-24T10:29:40;35.25;;;20.83;;
11598;SDS011;5855;48.840;9.188;2023-02-24T10:32:20;32.58;;;20.35;;
11598;SDS011;5855;48.840;9.188;2023-02-24T10:34:55;36.78;;;22.33;;
11598;SDS011;5855;48.840;9.188;2023-02-24T10:37:23;34.63;;;22.63;;
11598;SDS011;5855;48.840;9.188;2023-02-24T10:39:54;40.40;;;24.52;;
11598;SDS011;5855;48.840;9.188;2023-02-24T10:42:25;43.40;;;25.98;;
11598;SDS011;5855;48.840;9.188;2023-02-24T10:45:03;49.65;;;27.20;;
11598;SDS011;5855;48.840;9.188;2023-02-24T10:47:36;52.65;;;28.75;;
11598;SDS011;5855;48.840;9.188;2023-02-24T10:50:17;52.05;;;28.17;;
11598;SDS011;5855;48.840;9.188;2023-02-24T10:52:47;53.65;;;29.17;;
11598;SDS011;5855;48.840;9.188;2023-02-24T10:55:36;50.05;;;28.48;;
11598;SDS011;5855;48.840;9.188;2023-02-24T10:58:21;51.63;;;28.48;;
11598;SDS011;5855;48.840;9.188;2023-02-24T11:01:05;53.83;;;28.65;;
11598;SDS011;5855;48.840;9.188;2023-02-24T11:03:46;50.67;;;28.85;;
11598;SDS011;5855;48.840;9.188;2023-02-24T11:06:26;51.33;;;29.13;;
11598;SDS011;5855;48.840;9.188;2023-02-24T11:09:14;48.88;;;28.20;;
11598;SDS011;5855;48.840;9.188;2023-02-24T11:11:57;51.35;;;28.88;;
11598;SDS011;5855;48.840;9.188;2023-02-24T11:14:47;49.60;;;27.50;;
11598;SDS011;5855;48.840;9.188;2023-02-24T11:17:34;47.45;;;27.55;;
11598;SDS011;5855;48.840;9.188;2023-02-24T11:20:03;48.55;;;28.02;;
11598;SDS011;5855;48.840;9.188;2023-02-24T11:22:35;48.60;;;28.08;;
11598;SDS011;5855;48.840;9.188;2023-02-24T11:25:06;46.38;;;26.63;;
11598;SDS011;5855;48.840;9.188;2023-02-24T11:27:39;45.03;;;26.75;;
11598;SDS011;5855;48.840;9.188;2023-02-24T11:30:13;50.95;;;28.42;;
11598;SDS011;5855;48.840;9.188;2023-02-24T11:32:49;46.63;;;26.55;;
11598;SDS011;5855;48.840;9.188;2023-02-24T11:35:29;46.42;;;26.80;;
11598;SDS011;5855;48.840;9.188;2023-02-24T11:38:03;46.25;;;26.60;;
11598;SDS011;5855;48.840;9.188;2023-02-24T11:40:36;47.47;;;28.05;;
11598;SDS011;5855;48.840;9.188;2023-02-24T11:43:09;51.58;;;26.70;;
11598;SDS011;5855;48.840;9.188;2023-02-24T11:45:44;51.22;;;27.15;;
11598;SDS011;5855;48.840;9.188;2023-02-24T11:48:14;45.80;;;26.75;;
11598;SDS011;5855;48.840;9.188;2023-02-24T11:50:45;48.25;;;27.05;;
11598;SDS011;5855;48.840;9.188;2023-02-24T11:53:24;46.20;;;27.63;;
11598;SDS011;5855;48.840;9.188;2023-02-24T11:55:55;45.53;;;26.55;;
11598;SDS011;5855;48.840;9.188;2023-02-24T11:58:27;47.33;;;28.02;;
11598;SDS011;5855;48.840;9.188;2023-02-24T12:01:02;45.38;;;26.23;;
11598;SDS011;5855;48.840;9.188;2023-02-24T12:03:36;48.17;;;27.42;;
11598;SDS011;5855;48.840;9.188;2023-02-24T12:06:22;44.35;;;26.63;;
11598;SDS011;5855;48.840;9.188;2023-02-24T12:08:56;46.78;;;26.15;;
11598;SDS011;5855;48.840;9.188;2023-02-24T12:11:34;46.70;;;26.50;;
11598;SDS011;5855;48.840;9.188;2023-02-24T12:14:12;43.63;;;25.75;;
11598;SDS011;5855;48.840;9.188;2023-02-24T12:16:50;43.75;;;25.17;;
11598;SDS011;5855;48.840;9.188;2023-02-24T12:19:26;39.25;;;23.50;;
11598;SDS011;5855;48.840;9.188;2023-02-24T12:21:58;39.22;;;23.58;;
11598;SDS011;5855;48.840;9.188;2023-02-24T12:24:29;37.83;;;22.40;;
11598;SDS011;5855;48.840;9.188;2023-02-24T12:27:01;33.53;;;21.98;;
11598;SDS011;5855;48.840;9.188;2023-02-24T12:29:40;37.42;;;22.30;;
11598;SDS011;5855;48.840;9.188;2023-02-24T12:32:21;44.95;;;23.77;;
11598;SDS011;5855;48.840;9.188;2023-02-24T12:34:59;36.90;;;22.70;;
11598;SDS011;5855;48.840;9.188;2023-02-24T12:37:37;36.03;;;22.38;;
11598;SDS011;5855;48.840;9.188;2023-02-24T12:40:15;36.60;;;23.08;;
11598;SDS011;5855;48.840;9.188;2023-02-24T12:42:53;38.85;;;23.08;;
11598;SDS011;5855;48.840;9.188;2023-02-24T12:45:29;41.03;;;23.95;;
11598;SDS011;5855;48.840;9.188;2023-02-24T12:48:10;43.47;;;24.08;;
11598;SDS011;5855;48.840;9.188;2023-02-24T12:50:53;39.22;;;23.40;;
11598;SDS011;5855;48.840;9.188;2023-02-24T12:53:28;40.65;;;22.67;;
11598;SDS011;5855;48.840;9.188;2023-02-24T12:56:01;37.67;;;22.65;;
11598;SDS011;5855;48.840;9.188;2023-02-24T12:58:36;38.38;;;22.10;;
11598;SDS011;5855;48.840;9.188;2023-02-24T13:01:08;36.20;;;22.23;;
11598;SDS011;5855;48.840;9.188;2023-02-24T13:03:47;39.10;;;22.10;;
11598;SDS011;5855;48.840;9.188;2023-02-24T13:06:28;41.42;;;24.00;;
11598;SDS011;5855;48.840;9.188;2023-02-24T13:09:07;38.40;;;23.65;;
11598;SDS011;5855;48.840;9.188;2023-02-24T13:11:41;36.15;;;22.58;;
11598;SDS011;5855;48.840;9.188;2023-02-24T13:14:13;38.05;;;21.83;;
11598;SDS011;5855;48.840;9.188;2023-02-24T13:16:46;40.28;;;24.33;;
11598;SDS011;5855;48.840;9.188;2023-02-24T13:19:18;38.92;;;23.15;;
11598;SDS011;5855;48.840;9.188;2023-02-24T13:22:04;36.95;;;23.13;;
11598;SDS011;5855;48.840;9.188;2023-02-24T13:24:34;41.70;;;23.58;;
11598;SDS011;5855;48.840;9.188;2023-02-24T13:27:05;36.72;;;22.00;;
11598;SDS011;5855;48.840;9.188;2023-02-24T13:29:41;36.75;;;22.83;;
11598;SDS011;5855;48.840;9.188;2023-02-24T13:32:21;40.17;;;22.90;;
11598;SDS011;5855;48.840;9.188;2023-02-24T13:34:58;36.45;;;21.48;;
11598;SDS011;5855;48.840;9.188;2023-02-24T13:37:28;38.17;;;21.48;;
11598;SDS011;5855;48.840;9.188;2023-02-24T13:39:56;40.15;;;21.58;;
11598;SDS011;5855;48.840;9.188;2023-02-24T13:42:24;39.30;;;21.30;;
11598;SDS011;5855;48.840;9.188;2023-02-24T13:44:52;39.40;;;21.20;;
11598;SDS011;5855;48.840;9.188;2023-02-24T13:50:23;34.75;;;19.67;;
11598;SDS011;5855;48.840;9.188;2023-02-24T13:52:59;32.70;;;20.10;;
11598;SDS011;5855;48.840;9.188;2023-02-24T13:55:45;29.05;;;17.88;;
11598;SDS011;5855;48.840;9.188;2023-02-24T14:01:21;29.13;;;17.10;;
11598;SDS011;5855;48.840;9.188;2023-02-24T14:04:01;32.90;;;18.05;;
11598;SDS011;5855;48.840;9.188;2023-02-24T14:06:33;28.05;;;17.38;;
11598;SDS011;5855;48.840;9.188;2023-02-24T14:09:00;31.33;;;17.80;;
11598;SDS011;5855;48.840;9.188;2023-02-24T14:11:31;28.50;;;17.95;;
11598;SDS011;5855;48.840;9.188;2023-02-24T14:14:01;29.95;;;18.10;;
11598;SDS011;5855;48.840;9.188;2023-02-24T14:16:29;36.55;;;20.88;;
11598;SDS011;5855;48.840;9.188;2023-02-24T14:19:03;35.08;;;20.00;;
11598;SDS011;5855;48.840;9.188;2023-02-24T14:21:45;28.42;;;19.05;;
11598;SDS011;5855;48.840;9.188;2023-02-24T14:24:14;29.55;;;18.30;;
11598;SDS011;5855;48.840;9.188;2023-02-24T14:26:43;30.58;;;17.98;;
11598;SDS011;5855;48.840;9.188;2023-02-24T14:29:12;29.75;;;16.50;;
11598;SDS011;5855;48.840;9.188;2023-02-24T14:31:45;26.85;;;16.98;;
11598;SDS011;5855;48.840;9.188;2023-02-24T14:34:15;28.08;;;16.98;;
11598;SDS011;5855;48.840;9.188;2023-02-24T14:36:45;29.80;;;16.95;;
11598;SDS011;5855;48.840;9.188;2023-02-24T14:39:15;25.65;;;17.25;;
11598;SDS011;5855;48.840;9.188;2023-02-24T14:41:43;27.30;;;17.23;;
11598;SDS011;5855;48.840;9.188;2023-02-24T14:44:16;31.33;;;17.20;;
11598;SDS011;5855;48.840;9.188;2023-02-24T14:46:45;30.17;;;17.50;;
11598;SDS011;5855;48.840;9.188;2023-02-24T14:49:15;29.58;;;16.30;;
11598;SDS011;5855;48.840;9.188;2023-02-24T14:51:46;29.20;;;16.65;;
11598;SDS011;5855;48.840;9.188;2023-02-24T14:54:18;26.50;;;16.05;;
11598;SDS011;5855;48.840;9.188;2023-02-24T14:56:50;29.30;;;16.35;;
11598;SDS011;5855;48.840;9.188;2023-02-24T14:59:19;26.67;;;15.55;;
11598;SDS011;5855;48.840;9.188;2023-02-24T15:01:51;26.00;;;15.52;;
11598;SDS011;5855;48.840;9.188;2023-02-24T15:04:22;24.98;;;15.70;;
11598;SDS011;5855;48.840;9.188;2023-02-24T15:06:58;22.92;;;14.93;;
11598;SDS011;5855;48.840;9.188;2023-02-24T15:09:30;23.60;;;14.85;;
11598;SDS011;5855;48.840;9.188;2023-02-24T15:12:06;21.38;;;13.82;;
11598;SDS011;5855;48.840;9.188;2023-02-24T15:14:35;23.13;;;14.90;;